Aeroporto :
LOGIN :

Iscrizione | Disclaimer

   EN    FR    IT 

 










Sommario :    VFR   VFR Marginale   IFR   IFR Intensivo   IFR Molto Intensivo
Visibilità : 
Base nubi : 
>= 8 km
>= 3000ft
5 / 8 km
1000 / 3000 ft
1500m / 5 km
500 / 1000 ft
800 / 1500m
200 / 500 ft
< 800m
< 200 ft
Simboli :   Temporali  Nebbia  Neve Forte  Precipitazioni Forti  Vento > 20 kt
SIGMETs :   Varie  Temporali  Ghiacco  Turbolenza  Onda orograficha  Ceneri Vulcaniche






- Altitudine del aeroporto : 194 ft
- Codice IATA : LME


LFRM - Le Mans

ULTIMO METAR :
  • 250600Z AUTO 02004KT 350V050 CAVOK 19/16 Q1014 NOSIG

METARs OBSOLETI :
  • 250530Z AUTO 35004KT 310V040 CAVOK 19/16 Q1014 NOSIG
  • 250500Z AUTO VRB03KT CAVOK 18/15 Q1014
  • 250430Z AUTO 35004KT 310V020 CAVOK 17/15 Q1014
  • 250400Z AUTO 35004KT 320V020 CAVOK 17/15 Q1014
  • 250330Z AUTO 34004KT 300V030 CAVOK 17/15 Q1014
  • 250300Z AUTO VRB02KT CAVOK 18/16 Q1014
  • 250230Z AUTO 02004KT 340V040 CAVOK 18/16 Q1014
  • 250200Z AUTO 35004KT 320V030 CAVOK 18/16 Q1014
  • 250130Z AUTO 36003KT 320V030 CAVOK 19/16 Q1014
  • 250100Z AUTO 01005KT 320V050 CAVOK 19/16 Q1015

TAF TAF LFRM
Valido dal 25 a 06 ore il 26 a 06 ore UTC


250500Z 2506/2606 36005KT CAVOK



MetMap, La meteo Aeronautica in un colpo d'occhio ! - Copyright ORBIFLY Dicembre 2007 - Disclaimer

ORBIFLY MET'MAP TEAM :

Programmazione e sviluppo : Alexandra Zaïnal
Concezione : Baudouin d'Aumeries
Supporto tecnico e logistico : Manuel Goepfert
Aiuto : Marc-Olivier Méhu
Aiuto per la traduzione : Arnaldo La Scala




FONTI E CREDITI :

   NOAA